• Join FlightAware (Why Join?)
  • Login
  • US Flag 
12:49PM EDT


 

Airport Tracker/Info


-or-


 

Live Flight TrackerFlight Track Log ✈ LBQ792 ✈ 03-May-2013 ✈ KELM - KSYR

Flight Track Log - Related Links

Times and Time Zones

All times are in EDT time to prevent confusion due to time zone crossing. See the LBQ792 flight status page for this flight to view local times or setup timezone preferences in your user account.

Time Position Orientation Groundspeed Altitude Reporting Facility
EDT Latitude Longitude Course Direction KTS MPH feet Rate Location/Type
09:25PM 42.4412 -76.6624 31° Northeast  Level Estimated
09:26PM 42.4880 -76.6240 31° Northeast  Level Estimated
09:26PM 42.5447 -76.5578 31° Northeast 233 268 7,500  Level Boston Center
09:26PM 42.5594 -76.5475 27° Northeast 232 267 7,500  Level Boston Center
09:27PM 42.5349 -76.5855 31° Northeast  Level Estimated
09:27PM 42.6172 -76.5064 28° Northeast 232 267 7,500  Level Boston Center
09:28PM 42.5817 -76.5470 31° Northeast  Level Estimated
09:28PM 42.6750 -76.4706 25° Northeast 231 266 7,500  Level Boston Center
09:29PM 42.6285 -76.5084 31° Northeast  Level Estimated
09:29PM 42.7392 -76.4267 27° Northeast 231 266 7,500  Level Boston Center
09:30PM 42.6753 -76.4697 31° Northeast  Level Estimated
09:30PM 42.7947 -76.3878 27° Northeast 233 268 7,500  Level Boston Center
09:31PM 42.7220 -76.4310 31° Northeast  Level Estimated
09:31PM 42.8544 -76.3461 27° Northeast 238 274 6,900  Level Boston Center
09:32PM 42.9164 -76.2992 29° Northeast 261 300 5,400 -1,620 Descending Boston Center
09:33PM 42.9806 -76.2578 25° Northeast 256 295 3,700 -1,500 Descending Boston Center
09:34PM 43.0442 -76.2219 22° Northeast 246 283 2,400 -1,020 Descending Boston Center
09:35PM 43.1039 -76.1828 26° Northeast 217 250 1,700 -720 Descending Boston Center
09:37PM 43.1000 -76.1000 26° Northeast  Level FlightAware Approximate
09:44PM 43.1112 -76.1063 26° Northeast  Level Estimated
09:45PM 43.1112 -76.1063 26° Northeast  Level Estimated
09:46PM 43.1112 -76.1063 26° Northeast  Level Estimated
09:47PM 43.1112 -76.1063 26° Northeast  Level Estimated
09:48PM 43.1112 -76.1063 26° Northeast  Level Estimated
09:49PM 43.1112 -76.1063 26° Northeast  Level Estimated